createdAt,value
2023-04-16T00:00:40.134Z,9.90
2023-04-16T00:03:06.849Z,9.68
2023-04-16T00:05:33.505Z,9.57
2023-04-16T00:07:59.999Z,9.50
2023-04-16T00:10:26.495Z,9.78
2023-04-16T00:12:52.945Z,9.78
2023-04-16T00:15:19.420Z,9.67
2023-04-16T00:17:46.009Z,9.75
2023-04-16T00:20:12.587Z,9.73
2023-04-16T00:22:39.420Z,9.82
2023-04-16T00:25:06.342Z,9.76
2023-04-16T00:27:32.830Z,9.87
2023-04-16T00:29:59.305Z,10.10
2023-04-16T00:32:25.885Z,9.97
2023-04-16T00:34:52.344Z,10.00
2023-04-16T00:37:18.787Z,10.04
2023-04-16T00:39:45.389Z,10.06
2023-04-16T00:42:11.902Z,9.94
2023-04-16T00:44:38.396Z,9.80
2023-04-16T00:47:04.985Z,9.78
2023-04-16T00:49:31.900Z,9.69
2023-04-16T00:51:58.587Z,9.91
2023-04-16T00:54:25.293Z,10.06
2023-04-16T00:56:51.812Z,9.59
2023-04-16T00:59:18.555Z,10.00
2023-04-16T01:01:45.101Z,9.76
2023-04-16T01:04:11.933Z,9.86
2023-04-16T01:06:38.504Z,9.87
2023-04-16T01:09:05.641Z,10.05
2023-04-16T01:11:32.134Z,10.16
2023-04-16T01:13:58.584Z,10.24
2023-04-16T01:16:26.829Z,10.01
2023-04-16T01:18:53.372Z,9.95
2023-04-16T01:21:19.865Z,9.97
2023-04-16T01:23:46.371Z,10.21
2023-04-16T01:26:12.901Z,10.13
2023-04-16T01:28:39.403Z,9.77
2023-04-16T01:31:05.921Z,9.69
2023-04-16T01:33:32.415Z,9.64
2023-04-16T01:35:58.874Z,10.04
2023-04-16T01:38:25.346Z,10.22
2023-04-16T01:40:59.414Z,10.09
2023-04-16T01:43:26.108Z,10.05
2023-04-16T01:45:57.062Z,9.87
2023-04-16T01:48:23.499Z,9.96
2023-04-16T01:50:50.013Z,9.95
2023-04-16T01:53:16.464Z,9.66
2023-04-16T01:55:42.935Z,9.86
2023-04-16T01:58:11.048Z,10.06
2023-04-16T02:00:37.642Z,10.01
2023-04-16T02:03:04.410Z,9.89
2023-04-16T02:05:31.132Z,10.33
2023-04-16T02:07:57.677Z,10.15
2023-04-16T02:10:24.253Z,9.94
2023-04-16T02:12:51.025Z,10.18
2023-04-16T02:15:17.630Z,10.01
2023-04-16T02:17:44.093Z,10.03
2023-04-16T02:20:11.265Z,10.11
2023-04-16T02:22:37.737Z,10.04
2023-04-16T02:25:04.540Z,10.24
2023-04-16T02:27:31.018Z,10.19
2023-04-16T02:29:57.485Z,9.90
2023-04-16T02:32:24.101Z,10.03
2023-04-16T02:34:50.864Z,10.10
2023-04-16T02:37:17.368Z,10.24
2023-04-16T02:39:44.091Z,10.39
2023-04-16T02:42:10.689Z,10.23
2023-04-16T02:44:37.152Z,10.32
2023-04-16T02:47:03.658Z,10.24
2023-04-16T02:49:30.283Z,9.97
2023-04-16T02:51:56.745Z,10.14
2023-04-16T02:54:23.247Z,10.06
2023-04-16T02:56:49.732Z,10.32
2023-04-16T02:59:16.204Z,10.07
2023-04-16T03:01:42.709Z,10.09
2023-04-16T03:04:09.310Z,10.24
2023-04-16T03:06:36.071Z,10.38
2023-04-16T03:09:02.523Z,10.21
2023-04-16T03:11:28.974Z,10.32
2023-04-16T03:13:56.617Z,10.22
2023-04-16T03:16:23.295Z,10.14
2023-04-16T03:18:49.791Z,10.06
2023-04-16T03:21:16.260Z,9.95
2023-04-16T03:23:42.736Z,10.02
2023-04-16T03:26:09.205Z,10.12
2023-04-16T03:28:35.866Z,10.08
2023-04-16T03:31:02.397Z,10.20
2023-04-16T03:33:28.922Z,9.75
2023-04-16T03:35:58.908Z,9.98
2023-04-16T03:38:26.699Z,10.01
2023-04-16T03:40:53.250Z,10.08
2023-04-16T03:43:19.723Z,10.19
2023-04-16T03:45:47.026Z,9.96
2023-04-16T03:48:13.712Z,9.77
2023-04-16T03:50:40.233Z,10.09
2023-04-16T03:53:06.722Z,10.13
2023-04-16T03:55:33.171Z,10.10
2023-04-16T03:58:03.041Z,9.86
2023-04-16T04:00:30.506Z,10.06
2023-04-16T04:02:57.161Z,10.04
2023-04-16T04:05:23.843Z,10.11
2023-04-16T04:07:50.479Z,10.24
2023-04-16T04:10:17.010Z,10.51
2023-04-16T04:12:43.930Z,10.07
2023-04-16T04:15:11.651Z,9.93
2023-04-16T04:17:38.212Z,9.88
2023-04-16T04:20:05.205Z,9.89
2023-04-16T04:22:31.683Z,9.97
2023-04-16T04:24:58.159Z,10.09
2023-04-16T04:27:24.651Z,10.22
2023-04-16T04:29:51.551Z,10.32
2023-04-16T04:32:18.037Z,10.32
2023-04-16T04:34:44.586Z,9.97
2023-04-16T04:37:11.211Z,10.12
2023-04-16T04:39:37.672Z,10.13
2023-04-16T04:42:04.334Z,10.10
2023-04-16T04:44:30.859Z,10.22
2023-04-16T04:46:57.360Z,9.91
2023-04-16T04:49:23.854Z,10.16
2023-04-16T04:51:50.513Z,10.29
2023-04-16T04:54:16.963Z,10.08
2023-04-16T04:56:45.868Z,10.32
2023-04-16T04:59:12.715Z,9.96
2023-04-16T05:01:39.332Z,10.01
2023-04-16T05:04:06.378Z,10.24
2023-04-16T05:06:32.961Z,10.05
2023-04-16T05:08:59.422Z,10.11
2023-04-16T05:11:25.906Z,10.77
2023-04-16T05:13:52.428Z,11.01
2023-04-16T05:16:18.977Z,10.56
2023-04-16T05:18:45.554Z,10.10
2023-04-16T05:21:12.000Z,10.29
2023-04-16T05:23:38.448Z,10.31
2023-04-16T05:26:05.031Z,10.44
2023-04-16T05:28:31.474Z,10.34
2023-04-16T05:30:58.029Z,10.52
2023-04-16T05:33:24.587Z,10.72
2023-04-16T05:35:51.386Z,10.67
2023-04-16T05:38:17.853Z,10.30
2023-04-16T05:40:44.344Z,10.33
2023-04-16T05:43:11.020Z,10.76
2023-04-16T05:45:41.202Z,10.51
2023-04-16T05:48:09.261Z,10.67
2023-04-16T05:50:36.395Z,10.95
2023-04-16T05:53:05.827Z,10.64
2023-04-16T05:55:32.414Z,10.86
2023-04-16T05:57:58.889Z,10.94
2023-04-16T06:00:25.482Z,10.94
2023-04-16T06:02:52.046Z,11.12
2023-04-16T06:05:18.767Z,11.10
2023-04-16T06:07:45.346Z,11.13
2023-04-16T06:10:11.881Z,11.26
2023-04-16T06:12:38.418Z,11.21
2023-04-16T06:15:05.633Z,11.42
2023-04-16T06:17:32.225Z,11.54
2023-04-16T06:19:58.714Z,11.25
2023-04-16T06:22:25.250Z,11.49
2023-04-16T06:24:52.785Z,11.23
2023-04-16T06:27:19.285Z,11.42
2023-04-16T06:29:45.728Z,11.55
2023-04-16T06:32:12.316Z,11.25
2023-04-16T06:34:39.338Z,11.10
2023-04-16T06:37:07.155Z,11.06
2023-04-16T06:39:34.886Z,11.14
2023-04-16T06:42:01.475Z,11.04
2023-04-16T06:44:27.932Z,11.01
2023-04-16T06:46:54.408Z,10.91
2023-04-16T06:49:21.527Z,10.98
2023-04-16T06:51:48.018Z,10.73
2023-04-16T06:54:14.618Z,10.89
2023-04-16T06:56:41.090Z,10.70
2023-04-16T06:59:07.743Z,10.97
2023-04-16T07:01:34.417Z,11.30
2023-04-16T07:04:01.095Z,11.28
2023-04-16T07:06:27.854Z,11.33
2023-04-16T07:08:54.396Z,11.17
2023-04-16T07:11:21.143Z,11.11
2023-04-16T07:13:47.648Z,11.06
2023-04-16T07:16:14.169Z,11.18
2023-04-16T07:18:40.820Z,11.50
2023-04-16T07:21:07.296Z,11.16
2023-04-16T07:23:33.803Z,10.89
2023-04-16T07:26:00.800Z,11.15
2023-04-16T07:28:27.256Z,11.25
2023-04-16T07:30:53.838Z,11.03
2023-04-16T07:33:20.368Z,11.33
2023-04-16T07:35:47.388Z,11.35
2023-04-16T07:41:54.961Z,11.10
2023-04-16T07:44:21.537Z,11.13
2023-04-16T07:46:48.136Z,11.33
2023-04-16T07:49:14.981Z,11.23
2023-04-16T07:51:41.529Z,11.25
2023-04-16T07:54:08.050Z,11.26
2023-04-16T07:56:34.584Z,10.98
2023-04-16T07:59:11.104Z,11.17
2023-04-16T08:01:47.525Z,11.45
2023-04-16T08:04:14.366Z,11.62
2023-04-16T08:06:41.123Z,11.33
2023-04-16T08:09:14.664Z,11.80
2023-04-16T08:11:41.617Z,11.88
2023-04-16T08:14:08.390Z,11.12
2023-04-16T08:16:34.914Z,11.32
2023-04-16T08:19:01.678Z,11.27
2023-04-16T08:21:28.233Z,11.39
2023-04-16T08:23:54.689Z,11.90
2023-04-16T08:26:21.215Z,11.68
2023-04-16T08:28:47.693Z,11.63
2023-04-16T08:31:14.920Z,11.67
2023-04-16T08:33:41.422Z,11.33
2023-04-16T08:36:08.112Z,11.81
2023-04-16T08:38:34.615Z,11.37
2023-04-16T08:41:06.614Z,11.49
2023-04-16T08:43:34.568Z,11.14
2023-04-16T08:46:01.234Z,11.10
2023-04-16T08:48:33.667Z,11.46
2023-04-16T08:51:01.333Z,11.40
2023-04-16T08:53:33.508Z,11.18
2023-04-16T08:56:02.519Z,11.08
2023-04-16T08:58:30.687Z,10.85
2023-04-16T09:00:57.344Z,11.30
2023-04-16T09:03:24.013Z,11.11
2023-04-16T09:05:51.103Z,11.37
2023-04-16T09:08:18.268Z,11.48
2023-04-16T09:10:44.726Z,11.29
2023-04-16T09:13:13.451Z,11.66
2023-04-16T09:15:40.683Z,11.92
2023-04-16T09:18:07.785Z,11.83
2023-04-16T09:20:34.954Z,11.58
2023-04-16T09:23:01.506Z,11.48
2023-04-16T09:25:28.365Z,11.40
2023-04-16T09:27:54.838Z,11.06
2023-04-16T09:30:26.108Z,11.21
2023-04-16T09:32:53.726Z,11.84
2023-04-16T09:35:20.641Z,11.40
2023-04-16T09:38:05.370Z,11.48
2023-04-16T09:40:31.831Z,11.51
2023-04-16T09:43:00.768Z,11.32
2023-04-16T09:45:31.925Z,11.39
2023-04-16T09:48:04.332Z,12.01
2023-04-16T09:50:30.885Z,11.64
2023-04-16T09:53:02.625Z,11.57
2023-04-16T09:55:29.099Z,11.92
2023-04-16T09:58:00.463Z,11.82
2023-04-16T10:00:29.435Z,11.75
2023-04-16T10:03:07.219Z,11.57
2023-04-16T10:05:34.650Z,11.72
2023-04-16T10:08:03.955Z,11.73
2023-04-16T10:10:30.591Z,11.56
2023-04-16T10:12:57.986Z,11.34
2023-04-16T10:15:25.226Z,11.37
2023-04-16T10:17:51.863Z,11.67
2023-04-16T10:20:19.041Z,11.59
2023-04-16T10:22:46.655Z,11.32
2023-04-16T10:25:13.705Z,11.36
2023-04-16T10:27:41.342Z,11.42
2023-04-16T10:30:09.265Z,11.26
2023-04-16T10:32:36.844Z,11.24
2023-04-16T10:35:03.691Z,11.29
2023-04-16T10:37:31.342Z,11.12
2023-04-16T10:39:59.607Z,11.28
2023-04-16T10:42:27.532Z,11.26
2023-04-16T10:44:54.409Z,11.25
2023-04-16T10:47:25.053Z,10.91
2023-04-16T10:49:52.331Z,11.04
2023-04-16T10:52:19.240Z,10.78
2023-04-16T10:54:48.251Z,10.89
2023-04-16T10:57:20.330Z,10.44
2023-04-16T10:59:48.831Z,10.53
2023-04-16T11:02:18.061Z,10.91
2023-04-16T11:04:49.433Z,11.22
2023-04-16T11:07:22.076Z,11.00
2023-04-16T11:10:02.450Z,11.35
2023-04-16T11:12:29.279Z,10.72
2023-04-16T11:15:05.095Z,10.57
2023-04-16T11:17:37.835Z,10.36
2023-04-16T11:20:18.826Z,10.62
2023-04-16T11:22:47.815Z,10.32
2023-04-16T11:25:23.375Z,10.21
2023-04-16T11:27:51.123Z,10.24
2023-04-16T11:30:18.656Z,10.40
2023-04-16T11:32:46.862Z,10.63
2023-04-16T11:35:14.173Z,10.27
2023-04-16T11:37:41.430Z,10.15
2023-04-16T11:40:09.644Z,10.55
2023-04-16T11:42:37.309Z,10.69
2023-04-16T11:45:04.834Z,10.35
2023-04-16T11:47:31.859Z,10.43
2023-04-16T11:49:58.683Z,10.66
2023-04-16T11:52:32.773Z,10.71
2023-04-16T11:54:59.860Z,10.95
2023-04-16T11:57:28.365Z,10.74
2023-04-16T12:00:01.378Z,10.84
2023-04-16T12:02:45.257Z,11.02
2023-04-16T12:05:31.023Z,11.03
2023-04-16T12:08:30.649Z,11.24
2023-04-16T12:10:58.100Z,10.72
2023-04-16T12:13:24.581Z,11.39
2023-04-16T12:15:53.253Z,11.62
2023-04-16T12:18:22.878Z,11.21
2023-04-16T12:20:51.223Z,11.34
2023-04-16T12:23:25.588Z,11.10
2023-04-16T12:25:52.599Z,11.06
2023-04-16T12:28:31.017Z,11.38
2023-04-16T12:30:57.640Z,11.23
2023-04-16T12:33:24.223Z,11.02
2023-04-16T12:35:51.039Z,11.17
2023-04-16T12:38:17.621Z,11.36
2023-04-16T12:40:44.405Z,11.35
2023-04-16T12:43:11.153Z,11.17
2023-04-16T12:45:38.959Z,11.22
2023-04-16T12:48:05.649Z,12.03
2023-04-16T12:50:32.475Z,11.87
2023-04-16T12:52:59.128Z,12.02
2023-04-16T12:55:26.017Z,12.09
2023-04-16T12:57:55.622Z,12.16
2023-04-16T13:00:22.576Z,12.14
2023-04-16T13:02:49.262Z,11.98
2023-04-16T13:05:17.244Z,12.42
2023-04-16T13:07:43.808Z,11.80
2023-04-16T13:10:10.867Z,12.45
2023-04-16T13:12:37.455Z,12.43
2023-04-16T13:15:04.875Z,12.43
2023-04-16T13:17:31.367Z,12.23
2023-04-16T13:19:57.822Z,12.60
2023-04-16T13:22:24.309Z,12.81
2023-04-16T13:24:50.785Z,12.56
2023-04-16T13:27:18.113Z,12.59
2023-04-16T13:29:44.856Z,12.28
2023-04-16T13:32:13.741Z,12.32
2023-04-16T13:34:40.325Z,12.19
2023-04-16T13:37:07.014Z,12.22
2023-04-16T13:39:33.800Z,12.35
2023-04-16T13:42:00.608Z,12.82
2023-04-16T13:44:27.160Z,12.58
2023-04-16T13:46:53.735Z,12.54
2023-04-16T13:49:20.288Z,12.17
2023-04-16T13:51:46.787Z,12.29
2023-04-16T13:54:13.264Z,13.07
2023-04-16T13:56:40.095Z,12.68
2023-04-16T13:59:06.799Z,12.91
2023-04-16T14:01:33.278Z,12.69
2023-04-16T14:04:06.036Z,12.28
2023-04-16T14:06:33.838Z,12.65
2023-04-16T14:09:00.597Z,12.71
2023-04-16T14:11:27.089Z,12.60
2023-04-16T14:13:53.658Z,12.53
2023-04-16T14:16:20.340Z,12.66
2023-04-16T14:18:47.759Z,12.14
2023-04-16T14:21:14.704Z,12.08
2023-04-16T14:23:41.689Z,12.65
2023-04-16T14:26:08.649Z,12.31
2023-04-16T14:28:35.824Z,12.29
2023-04-16T14:31:02.825Z,12.44
2023-04-16T14:33:29.502Z,12.25
2023-04-16T14:35:56.126Z,12.23
2023-04-16T14:38:22.620Z,12.18
2023-04-16T14:40:49.094Z,12.15
2023-04-16T14:43:15.793Z,12.12
2023-04-16T14:45:42.355Z,12.78
2023-04-16T14:48:09.128Z,12.50
2023-04-16T14:50:39.128Z,12.92
2023-04-16T14:53:05.994Z,12.77
2023-04-16T14:55:32.904Z,12.79
2023-04-16T14:58:00.009Z,12.65
2023-04-16T15:00:27.707Z,12.43
2023-04-16T15:02:55.339Z,12.47
2023-04-16T15:05:22.479Z,12.08
2023-04-16T15:07:49.449Z,12.21
2023-04-16T15:10:16.576Z,11.97
2023-04-16T15:12:43.099Z,12.42
2023-04-16T15:15:10.551Z,12.76
2023-04-16T15:17:37.121Z,12.33
2023-04-16T15:20:08.150Z,12.60
2023-04-16T15:22:34.834Z,13.19
2023-04-16T15:25:01.335Z,12.69
2023-04-16T15:27:27.964Z,12.76
2023-04-16T15:29:54.529Z,12.81
2023-04-16T15:32:21.107Z,12.56
2023-04-16T15:34:47.572Z,12.32
2023-04-16T15:37:16.141Z,12.51
2023-04-16T15:39:42.980Z,12.50
2023-04-16T15:42:11.473Z,12.66
2023-04-16T15:44:37.967Z,12.99
2023-04-16T15:47:06.303Z,12.80
2023-04-16T15:49:33.109Z,12.41
2023-04-16T15:52:00.189Z,12.38
2023-04-16T15:54:27.210Z,12.19
2023-04-16T15:56:53.749Z,12.21
2023-04-16T15:59:20.259Z,12.14
2023-04-16T16:01:46.795Z,12.19
2023-04-16T16:04:13.608Z,12.57
2023-04-16T16:06:40.439Z,12.91
2023-04-16T16:09:06.884Z,12.74
2023-04-16T16:11:33.554Z,12.31
2023-04-16T16:14:02.854Z,12.19
2023-04-16T16:16:29.345Z,12.29
2023-04-16T16:18:55.978Z,12.10
2023-04-16T16:21:22.711Z,12.23
2023-04-16T16:23:49.278Z,12.29
2023-04-16T16:26:16.047Z,12.10
2023-04-16T16:28:44.628Z,12.19
2023-04-16T16:31:12.259Z,12.14
2023-04-16T16:33:40.485Z,11.75
2023-04-16T16:36:10.371Z,11.89
2023-04-16T16:38:36.909Z,11.75
2023-04-16T16:41:03.357Z,11.78
2023-04-16T16:43:29.858Z,12.07
2023-04-16T16:45:56.377Z,12.42
2023-04-16T16:48:22.894Z,11.96
2023-04-16T16:50:49.352Z,12.05
2023-04-16T16:53:15.845Z,11.73
2023-04-16T16:55:42.278Z,11.88
2023-04-16T16:58:09.705Z,12.14
2023-04-16T17:00:36.333Z,12.24
2023-04-16T17:03:03.281Z,12.04
2023-04-16T17:05:29.896Z,12.31
2023-04-16T17:07:56.373Z,12.08
2023-04-16T17:10:23.146Z,12.30
2023-04-16T17:12:50.490Z,12.46
2023-04-16T17:15:20.504Z,12.42
2023-04-16T17:17:48.254Z,12.20
2023-04-16T17:20:14.768Z,12.31
2023-04-16T17:22:41.826Z,12.36
2023-04-16T17:25:08.637Z,12.40
2023-04-16T17:27:35.207Z,11.90
2023-04-16T17:30:02.771Z,12.38
2023-04-16T17:32:29.811Z,12.08
2023-04-16T17:34:56.445Z,12.47
2023-04-16T17:37:23.490Z,12.13
2023-04-16T17:39:50.448Z,11.74
2023-04-16T17:42:17.235Z,12.07
2023-04-16T17:44:44.918Z,12.11
2023-04-16T17:47:11.811Z,11.76
2023-04-16T17:49:38.255Z,12.03
2023-04-16T17:52:04.859Z,11.96
2023-04-16T17:54:31.525Z,11.76
2023-04-16T17:56:58.634Z,12.05
2023-04-16T17:59:25.090Z,12.00
2023-04-16T18:01:51.635Z,11.99
2023-04-16T18:04:18.628Z,11.84
2023-04-16T18:06:45.647Z,12.13
2023-04-16T18:09:12.347Z,11.97
2023-04-16T18:11:38.853Z,11.48
2023-04-16T18:14:05.391Z,11.72
2023-04-16T18:16:32.251Z,11.92
2023-04-16T18:18:59.097Z,11.76
2023-04-16T18:21:25.969Z,11.83
2023-04-16T18:23:52.437Z,11.76
2023-04-16T18:26:21.096Z,11.89
2023-04-16T18:28:49.293Z,11.98
2023-04-16T18:31:15.967Z,11.66
2023-04-16T18:33:54.139Z,11.89
2023-04-16T18:36:23.631Z,11.53
2023-04-16T18:39:00.021Z,11.84
2023-04-16T18:41:27.237Z,11.92
2023-04-16T18:43:53.716Z,11.84
2023-04-16T18:46:20.321Z,11.73
2023-04-16T18:48:46.891Z,11.69
2023-04-16T18:51:15.462Z,11.50
2023-04-16T18:53:44.452Z,11.55
2023-04-16T18:56:11.634Z,11.59
2023-04-16T18:58:38.223Z,11.50
2023-04-16T19:01:07.675Z,11.46
2023-04-16T19:03:34.360Z,11.32
2023-04-16T19:06:01.111Z,11.37
2023-04-16T19:08:27.714Z,11.26
2023-04-16T19:10:54.255Z,11.56
2023-04-16T19:13:20.732Z,11.33
2023-04-16T19:15:47.398Z,11.45
2023-04-16T19:18:13.950Z,11.58
2023-04-16T19:20:40.446Z,11.58
2023-04-16T19:23:09.021Z,11.57
2023-04-16T19:25:36.527Z,11.61
2023-04-16T19:28:06.109Z,11.49
2023-04-16T19:30:32.653Z,11.42
2023-04-16T19:32:59.168Z,11.56
2023-04-16T19:35:25.814Z,11.61
2023-04-16T19:37:52.375Z,11.57
2023-04-16T19:40:19.137Z,11.34
2023-04-16T19:42:45.642Z,11.35
2023-04-16T19:45:12.312Z,11.26
2023-04-16T19:47:38.920Z,11.20
2023-04-16T19:50:06.073Z,11.31
2023-04-16T19:52:37.408Z,11.25
2023-04-16T19:55:04.859Z,11.38
2023-04-16T19:57:31.293Z,11.38
2023-04-16T19:59:57.823Z,11.38
2023-04-16T20:02:24.499Z,11.37
2023-04-16T20:04:52.938Z,11.40
2023-04-16T20:07:19.935Z,11.48
2023-04-16T20:09:46.584Z,11.58
2023-04-16T20:12:13.018Z,11.58
2023-04-16T20:14:39.496Z,11.52
2023-04-16T20:17:10.085Z,11.38
2023-04-16T20:19:38.424Z,11.41
2023-04-16T20:22:05.123Z,11.41
2023-04-16T20:24:31.680Z,11.34
2023-04-16T20:26:58.107Z,11.49
2023-04-16T20:29:24.565Z,11.45
2023-04-16T20:31:53.143Z,11.45
2023-04-16T20:34:19.626Z,11.51
2023-04-16T20:36:46.068Z,11.62
2023-04-16T20:39:12.840Z,11.65
2023-04-16T20:41:44.037Z,11.53
2023-04-16T20:44:18.105Z,11.59
2023-04-16T20:46:49.440Z,11.67
2023-04-16T20:49:17.717Z,11.59
2023-04-16T20:51:44.421Z,11.51
2023-04-16T20:54:11.452Z,11.59
2023-04-16T20:56:37.919Z,11.54
2023-04-16T20:59:04.599Z,11.63
2023-04-16T21:01:31.113Z,11.55
2023-04-16T21:03:57.717Z,11.48
2023-04-16T21:06:24.314Z,11.55
2023-04-16T21:08:50.863Z,11.51
2023-04-16T21:11:17.448Z,11.54
2023-04-16T21:13:43.986Z,11.54
2023-04-16T21:16:12.446Z,11.51
2023-04-16T21:18:39.162Z,11.48
2023-04-16T21:21:06.023Z,11.49
2023-04-16T21:23:32.585Z,11.33
2023-04-16T21:25:59.081Z,11.48
2023-04-16T21:28:25.790Z,11.61
2023-04-16T21:30:52.776Z,11.48
2023-04-16T21:33:19.296Z,11.40
2023-04-16T21:35:51.229Z,11.30
2023-04-16T21:38:17.886Z,11.40
2023-04-16T21:40:45.989Z,11.43
2023-04-16T21:43:12.451Z,11.47
2023-04-16T21:45:39.784Z,11.51
2023-04-16T21:48:06.625Z,11.55
2023-04-16T21:50:33.157Z,11.48
2023-04-16T21:52:59.636Z,11.53
2023-04-16T21:55:26.191Z,11.29
2023-04-16T21:57:52.670Z,11.37
2023-04-16T22:00:19.325Z,11.19
2023-04-16T22:02:45.910Z,11.21
2023-04-16T22:05:12.721Z,11.18
2023-04-16T22:07:39.239Z,11.26
2023-04-16T22:10:06.800Z,11.23
2023-04-16T22:12:33.271Z,11.28
2023-04-16T22:15:02.959Z,11.32
2023-04-16T22:17:30.151Z,11.34
2023-04-16T22:19:57.768Z,11.29
2023-04-16T22:22:24.326Z,11.25
2023-04-16T22:24:51.831Z,11.24
2023-04-16T22:27:18.668Z,11.30
2023-04-16T22:29:45.251Z,11.30
2023-04-16T22:32:12.235Z,11.16
2023-04-16T22:34:39.461Z,11.20
2023-04-16T22:37:08.291Z,11.20
2023-04-16T22:39:35.828Z,11.01
2023-04-16T22:42:02.889Z,10.72
2023-04-16T22:44:30.691Z,10.80
2023-04-16T22:46:57.765Z,10.85
2023-04-16T22:49:24.790Z,10.69
2023-04-16T22:51:51.727Z,10.92
2023-04-16T22:54:18.801Z,10.94
2023-04-16T22:56:48.600Z,10.91
2023-04-16T22:59:15.172Z,10.83
2023-04-16T23:01:42.751Z,10.95
2023-04-16T23:04:09.369Z,10.81
2023-04-16T23:06:35.853Z,10.78
2023-04-16T23:09:02.515Z,10.60
2023-04-16T23:11:29.023Z,10.69
2023-04-16T23:13:55.791Z,10.90
2023-04-16T23:16:22.405Z,10.94
2023-04-16T23:18:48.926Z,10.54
2023-04-16T23:21:15.471Z,10.79
2023-04-16T23:23:41.988Z,10.79
2023-04-16T23:26:08.495Z,10.46
2023-04-16T23:28:34.948Z,10.69
2023-04-16T23:31:01.521Z,10.67
2023-04-16T23:33:27.989Z,10.78
2023-04-16T23:35:56.818Z,10.65
2023-04-16T23:38:23.327Z,10.57
2023-04-16T23:40:49.969Z,10.55
2023-04-16T23:43:16.518Z,10.41
2023-04-16T23:45:43.021Z,10.69
2023-04-16T23:48:09.534Z,10.72
2023-04-16T23:50:36.009Z,10.44
2023-04-16T23:53:02.483Z,10.58
2023-04-16T23:55:29.002Z,10.61
2023-04-16T23:57:55.536Z,10.53
